Tiempo atmosférico en la estación meteorológica de Cartaya, Huelva (15 m.)



Fecha
DESCASC
Temp. máxima en grados centígrados (hora)
DESCASC
Temp. mínima en grados centígrados (hora)
DESCASC
Temp. media en grados centígrados
DESCASC
Racha de viento máxima en m/sg (hora)
DESCASC
Velocidad máxima media en intervalos de 10 minutos(hora)
DESCASC
Precipitaciones diarias en mm
DESCASC
Precipitaciones de 00:00 a 06:00 en mm
DESCASC
Precipitaciones de 06:00 a 12:00 en mm
DESCASC
Precipitaciones de 12:00 a 18:00 en mm
DESCASC
Precipitaciones de 18:00 a 24:00 en mm
DESCASC
20-05-2018 22.4 (14:10) 10.6 (07:20) 16.5 6.94 (19:40) 4.17 (13:50) 8 0 0 8 0
19-05-2018 24.5 (16:50) 12.2 (02:50) 18.3 6.94 (21:30) 3.89 (15:10) 0.2 0 0 0 0.2
18-05-2018 23 (15:20) 12.3 (00:00) 17.7 6.39 (17:10) 4.44 (18:30) 0 0 0 0 0
17-05-2018 23.6 (16:10) 11.9 (00:00) 17.8 7.78 (01:20) 4.44 (17:00) 0 0 0 0 0
16-05-2018 25.5 (18:30) 8.4 (00:00) 16.9 7.22 (20:10) 5 (19:40) 0 0 0 0 0
15-05-2018 27.3 (13:50) 12.9 (00:00) 20.1 8.61 (12:30) 4.72 (13:30) 0 0 0 0 0
14-05-2018 28.3 (16:50) 11.5 (00:00) 19.9 10.28 (17:20) 5 (10:00) 0 0 0 0 0
13-05-2018 24 (16:10) 8.5 (00:00) 16.3 10.28 (15:10) 4.72 (12:00) 0 0 0 0 0
12-05-2018 23.4 (15:40) 11.9 (00:00) 17.6 11.39 (19:50) 5.28 (17:20) 0 0 0 0 0
11-05-2018 20.5 (15:40) 9.4 (03:20) 14.9 6.39 (21:40) 3.89 (18:30) 0 0 0 0 0
10-05-2018 19.3 (15:40) 10.7 (00:00) 15 7.78 (14:30) 5.28 (14:20) 0 0 0 0 0
09-05-2018 23.3 (14:40) 12.7 (00:00) 18 8.89 (14:50) 5.56 (15:10) 0 0 0 0 0
08-05-2018 22.9 (14:20) 14.5 (00:00) 18.7 8.89 (15:40) 6.39 (15:40) 0.4 0 0.4 0 0
07-05-2018 22.8 (15:50) 12 (00:00) 17.4 7.5 (20:40) 4.44 (20:40) 0 0 0 0 0
06-05-2018 26.1 (13:50) 10.4 (00:00) 18.3 6.67 (17:10) 4.44 (17:30) 0 0 0 0 0
05-05-2018 21.5 (19:00) 10.3 (00:00) 15.9 6.39 (18:00) 4.44 (17:50) 0 0 0 0 0
04-05-2018 22.9 (12:50) 11 (00:00) 16.9 8.61 (18:00) 5.28 (17:40) 0 0 0 0 0
03-05-2018 22.1 (13:10) 9 (00:00) 15.6 10.83 (16:30) 6.67 (18:00) 0 0 0 0 0
02-05-2018 17.7 (16:00) 5.6 (00:00) 11.7 10 (17:30) 6.67 (17:30) 0 0 0 0 0
01-05-2018 20 (18:20) 7.3 (07:00) 13.7 12.22 (15:30) 5.83 (15:30) 0 0 0 0 0
30-04-2018 16.5 (16:30) 4.1 (00:00) 10.3 8.33 (19:40) 5.28 (19:10) 0 0 0 0 0
29-04-2018 17.8 (15:10) 8.8 (00:00) 13.3 13.61 (14:50) 7.78 (15:20) 0 0 0 0 0
28-04-2018 17.5 (17:30) 8.2 (00:00) 12.8 14.17 (19:30) 8.89 (19:40) 0 0 0 0 0
27-04-2018 25.8 (16:20) 11.9 (00:00) 18.8 9.72 (15:50) 5.28 (17:40) 0 0 0 0 0
26-04-2018 21.7 (15:10) 15.7 (00:00) 18.7 9.72 (01:40) 4.17 (01:30) 0 0 0 0 0
25-04-2018 21.5 (13:50) 13.7 (00:00) 17.6 6.67 (16:10) 3.89 (16:00) 0 0 0 0 0
24-04-2018 22.1 (17:40) 14.9 (00:00) 18.5 5.56 (08:10) 3.06 (11:30) 0 0 0 0 0
23-04-2018 22.3 (16:30) 12.7 (00:00) 17.5 7.5 (20:30) 4.72 (18:20) 0 0 0 0 0
22-04-2018 20.3 (19:20) 12.6 (00:00) 16.4 5 (15:00) 3.33 (15:00) 0.6 0.6 0 0 0

Gráficas

Temp. máximas Temp. mínimas Temp. medias Precipitaciones Rachas de viento máximas Velocidades máximas media en intervalos de 10 minutos

Datos horarios

Fecha y hora oficial Temperatura (ºC) Velocidad del viento (km/h) Dirección del viento Racha (km/h) Dirección de racha Precipitación (mm) Presión (hPa) Tendencia (hPa) Humedad (%)
2018-05-21 23:00:00 -- -- -- -- -- -- -- -- --
2018-05-21 22:00:00 17.7 10 Oeste 20 Oeste 0 -- -- 88
2018-05-21 21:00:00 18.2 10 Oeste 27 Oeste 0 -- -- 85
2018-05-21 20:00:00 19 15 Oeste 31 Oeste 0 -- -- 81
2018-05-21 19:00:00 19.3 20 Oeste 30 Oeste 0 -- -- 79
2018-05-21 18:00:00 20.1 18 Oeste 28 Sudoeste 0 -- -- 79
2018-05-21 17:00:00 21.2 17 Oeste 25 Oeste 0 -- -- 73
2018-05-21 16:00:00 21.6 10 Sudoeste 17 Sudoeste 0 -- -- 75
2018-05-21 15:00:00 21.5 9 Sudoeste 18 Sudoeste 0 -- -- 74
2018-05-21 14:00:00 21.7 9 Sur 18 Sur 0 -- -- 74
2018-05-21 13:00:00 20 6 Sur 10 Sur 0 -- -- 78
2018-05-21 12:00:00 18.6 2 Nordeste 9 Nordeste 0 -- -- 88
2018-05-21 11:00:00 17.6 4 Nordeste 11 Nordeste 0 -- -- 93
2018-05-21 10:00:00 16.9 6 Nordeste 12 Nordeste 0 -- -- 100
2018-05-21 09:00:00 14.9 5 Nordeste 11 Nordeste 0 -- -- 100
2018-05-21 08:00:00 13.8 4 Norte 7 Nordeste 0 -- -- 100
2018-05-21 07:00:00 13.1 4 Nordeste 6 Nordeste 0 -- -- 100
2018-05-21 06:00:00 13.7 4 Este 7 Nordeste 0 -- -- 100
2018-05-21 05:00:00 13.4 4 Nordeste 5 Nordeste 0 -- -- 100
2018-05-21 04:00:00 13.1 3 Nordeste 7 Nordeste 0 -- -- 100
2018-05-21 03:00:00 12.8 4 Nordeste 8 Norte 0 -- -- 100
2018-05-21 02:00:00 12.8 4 Norte 6 Norte 0 -- -- 99
2018-05-21 01:00:00 13.3 0 Calma 5 Norte 0 -- -- 98
2018-05-21 00:00:00 14.3 3 Nordeste 5 Nordeste 0 -- -- 98
2018-05-20 23:00:00 15.6 0 Calma 4 Norte 0 -- -- 97
2018-05-20 22:00:00 16.8 3 Nordeste 4 Nordeste 0 -- -- 94
2018-05-20 21:00:00 18.4 4 Sudoeste 14 Sudoeste 0 -- -- 86
2018-05-20 20:00:00 18.2 12 Sudoeste 25 Sur 0 -- -- 90
2018-05-20 19:00:00 18.9 3 Nordeste 16 Nordeste 0 -- -- 93
2018-05-20 18:00:00 17.4 4 Noroeste 19 Noroeste 2 -- -- 96
2018-05-20 17:00:00 16.6 3 Norte 8 Nordeste 5.2 -- -- 96
2018-05-20 16:00:00 17.8 4 Norte 12 Norte 0.8 -- -- 89
2018-05-20 15:00:00 20.2 7 Oeste 23 Oeste 0 -- -- 71
2018-05-20 14:00:00 22.3 15 Sudoeste 24 Sudoeste 0 -- -- 67
2018-05-20 13:00:00 21.9 13 Sudoeste 21 Sudoeste 0 -- -- 71
2018-05-20 12:00:00 22.1 10 Sudoeste 16 Sudoeste 0 -- -- 67
2018-05-20 11:00:00 20.8 8 Sudoeste 12 Oeste 0 -- -- 70
2018-05-20 10:00:00 19.6 3 Noroeste 6 Noroeste 0 -- -- 75
2018-05-20 09:00:00 16.1 4 Nordeste 9 Nordeste 0 -- -- 95
2018-05-20 08:00:00 11.6 5 Nordeste 8 Nordeste 0 -- -- 100
2018-05-20 07:00:00 10.7 5 Nordeste 7 Nordeste 0 -- -- 99
2018-05-20 06:00:00 11.1 4 Nordeste 6 Nordeste 0 -- -- 98
2018-05-20 05:00:00 11.9 3 Este 8 Este 0 -- -- 97
2018-05-20 04:00:00 12.8 5 Este 8 Este 0 -- -- 97
2018-05-20 03:00:00 13.1 4 Este 6 Este 0 -- -- 96
2018-05-20 02:00:00 14 4 Este 9 Este 0 -- -- 94
2018-05-20 01:00:00 14.6 3 Norte 6 Norte 0 -- -- 93
2018-05-20 00:00:00 16.2 2 Norte 10 Norte 0 -- -- 89
2018-05-19 23:00:00 17.4 4 Norte 10 Este 0 -- -- 87
2018-05-19 22:00:00 18.8 4 Este 25 Sudeste 0.2 -- -- 82
2018-05-19 21:00:00 20.8 9 Oeste 16 Oeste 0 -- -- 65
2018-05-19 20:00:00 21.5 9 Oeste 21 Oeste 0 -- -- 62
2018-05-19 19:00:00 22.4 13 Oeste 24 Sudoeste 0 -- -- 64
2018-05-19 18:00:00 23.7 12 Sudoeste 24 Oeste 0 -- -- 58
2018-05-19 17:00:00 24.5 12 Sudoeste 24 Sudoeste 0 -- -- 51
2018-05-19 16:00:00 23.6 13 Oeste 20 Sudoeste 0 -- -- 55
2018-05-19 15:00:00 23.6 14 Oeste 21 Sudoeste 0 -- -- 54
2018-05-19 14:00:00 24 10 Sudoeste 18 Sudoeste 0 -- -- 50
2018-05-19 13:00:00 23.5 9 Sudoeste 15 Sudoeste 0 -- -- 57
2018-05-19 12:00:00 23.3 10 Sudoeste 17 Sudeste 0 -- -- 59
2018-05-19 11:00:00 21.9 11 Este 21 Este 0 -- -- 56
2018-05-19 10:00:00 19.8 11 Este 19 Nordeste 0 -- -- 68
2018-05-19 09:00:00 16.6 6 Nordeste 11 Este 0 -- -- 85
2018-05-19 08:00:00 13 5 Nordeste 9 Nordeste 0 -- -- 97
2018-05-19 07:00:00 12.6 6 Nordeste 10 Nordeste 0 -- -- 97
2018-05-19 06:00:00 12.8 5 Nordeste 10 Este 0 -- -- 96
2018-05-19 05:00:00 13.3 5 Nordeste 9 Nordeste 0 -- -- 96
2018-05-19 04:00:00 12.9 6 Nordeste 10 Este 0 -- -- 94
2018-05-19 03:00:00 12.2 5 Nordeste 8 Este 0 -- -- 94
2018-05-19 02:00:00 12.5 5 Nordeste 8 Nordeste 0 -- -- 94
2018-05-19 01:00:00 12.9 5 Nordeste 7 Nordeste 0 -- -- 94
2018-05-19 00:00:00 14.4 5 Este 8 Este 0 -- -- 90
2018-05-18 23:00:00 15.1 5 Norte 8 Norte 0 -- -- 90
2018-05-18 22:00:00 17.3 3 Noroeste 10 Oeste 0 -- -- 84
2018-05-18 21:00:00 19.5 6 Noroeste 20 Noroeste 0 -- -- 77
2018-05-18 20:00:00 20.4 14 Oeste 22 Oeste 0 -- -- 73
2018-05-18 19:00:00 20.5 13 Oeste 23 Oeste 0 -- -- 73
2018-05-18 18:00:00 21.6 14 Oeste 23 Oeste 0 -- -- 69
2018-05-18 17:00:00 22.2 15 Oeste 22 Oeste 0 -- -- 66
2018-05-18 16:00:00 22.2 13 Oeste 19 Oeste 0 -- -- 65
2018-05-18 15:00:00 22.5 10 Oeste 18 Sudoeste 0 -- -- 62
2018-05-18 14:00:00 22 12 Oeste 18 Sudoeste 0 -- -- 66
2018-05-18 13:00:00 21.7 9 Sudoeste 17 Sudoeste 0 -- -- 65
2018-05-18 12:00:00 21.6 8 Sudoeste 15 Sur 0 -- -- 68
2018-05-18 11:00:00 21.1 6 Sur 11 Sudoeste 0 -- -- 69
2018-05-18 10:00:00 17.3 8 Este 12 Este 0 -- -- 90
2018-05-18 09:00:00 14.9 5 Este 8 Este 0 -- -- 96
2018-05-18 08:00:00 12.8 3 Nordeste 5 Norte 0 -- -- 97
2018-05-18 07:00:00 12.3 3 Norte 5 Noroeste 0 -- -- 96
2018-05-18 06:00:00 13 2 Noroeste 11 Oeste 0 -- -- 92
2018-05-18 05:00:00 16.3 4 Oeste 12 Oeste 0 -- -- 87
2018-05-18 04:00:00 17.2 6 Oeste 13 Sudoeste 0 -- -- 87
2018-05-18 03:00:00 17.5 7 Sudoeste 15 Oeste 0 -- -- 87
2018-05-18 02:00:00 17.3 9 Oeste 14 Oeste 0 -- -- 90
2018-05-18 01:00:00 17.5 5 Noroeste 18 Noroeste 0 -- -- 87
2018-05-18 00:00:00 17.8 10 Noroeste 17 Oeste 0 -- -- 87
2018-05-17 23:00:00 18.3 8 Noroeste 21 Oeste 0 -- -- 86
2018-05-17 22:00:00 18.7 7 Noroeste 18 Oeste 0 -- -- 84
2018-05-17 21:00:00 19.4 12 Oeste 26 Noroeste 0 -- -- 80
2018-05-17 20:00:00 19.9 13 Oeste 23 Sudoeste 0 -- -- 78
2018-05-17 19:00:00 21.7 13 Sudoeste 24 Sudoeste 0 -- -- 71
2018-05-17 18:00:00 22.2 13 Oeste 24 Sudoeste 0 -- -- 63
2018-05-17 17:00:00 22.5 16 Oeste 24 Oeste 0 -- -- 61
2018-05-17 16:00:00 23.4 14 Oeste 23 Noroeste 0 -- -- 52
2018-05-17 15:00:00 23.2 13 Oeste 23 Oeste 0 -- -- 55
2018-05-17 14:00:00 23.3 8 Sudoeste 18 Sudoeste 0 -- -- 53
2018-05-17 13:00:00 22.6 10 Sudoeste 21 Sur 0 -- -- 51
2018-05-17 12:00:00 22.9 10 Sur 20 Sur 0 -- -- 46
2018-05-17 11:00:00 22 9 Sur 22 Sur 0 -- -- 52
2018-05-17 10:00:00 20.6 5 Sudeste 11 Sudeste 0 -- -- 58
2018-05-17 09:00:00 17.4 6 Nordeste 14 Este 0 -- -- 76
2018-05-17 08:00:00 12.6 6 Este 10 Este 0 -- -- 93
2018-05-17 07:00:00 12.2 5 Nordeste 9 Nordeste 0 -- -- 92
2018-05-17 06:00:00 12.1 5 Nordeste 6 Nordeste 0 -- -- 90
2018-05-17 05:00:00 15 3 Sur 8 Sur 0 -- -- 84
2018-05-17 04:00:00 17.5 6 Sudoeste 17 Oeste 0 -- -- 78
2018-05-17 03:00:00 17.8 10 Oeste 18 Oeste 0 -- -- 73
2018-05-17 02:00:00 17.7 8 Sudoeste 28 Sudoeste 0 -- -- 78
2018-05-17 01:00:00 18.2 14 Sudoeste 25 Sudoeste 0 -- -- 74
2018-05-17 00:00:00 18.3 9 Oeste 17 Oeste 0 -- -- 77
2018-05-16 23:00:00 19 10 Oeste 21 Oeste 0 -- -- 70
2018-05-16 22:00:00 19.3 12 Oeste 20 Oeste 0 -- -- 67
2018-05-16 21:00:00 20.2 12 Oeste 26 Oeste 0 -- -- 62
2018-05-16 20:00:00 21.6 15 Noroeste 26 Noroeste 0 -- -- 56
2018-05-16 19:00:00 24.5 16 Oeste 22 Oeste 0 -- -- 44
2018-05-16 18:00:00 25 14 Noroeste 23 Oeste 0 -- -- 38
2018-05-16 17:00:00 24.8 13 Noroeste 23 Oeste 0 -- -- 41
2018-05-16 16:00:00 23.7 11 Oeste 19 Oeste 0 -- -- 42
2018-05-16 15:00:00 23.2 13 Oeste 18 Oeste 0 -- -- 48
2018-05-16 14:00:00 22.5 11 Oeste 18 Sudoeste 0 -- -- 54
2018-05-16 13:00:00 22.4 10 Oeste 15 Oeste 0 -- -- 52
2018-05-16 12:00:00 21.8 7 Oeste 12 Oeste 0 -- -- 54
2018-05-16 11:00:00 21.2 5 Sudoeste 9 Oeste 0 -- -- 56
2018-05-16 10:00:00 19.2 5 Este 10 Sudeste 0 -- -- 64
2018-05-16 09:00:00 15.1 3 Este 8 Este 0 -- -- 82
2018-05-16 08:00:00 9.1 5 Este 8 Este 0 -- -- 97
2018-05-16 07:00:00 8.6 4 Este 6 Este 0 -- -- 95
2018-05-16 06:00:00 9.2 3 Sudeste 9 Sudeste 0 -- -- 93
2018-05-16 05:00:00 9.7 4 Este 9 Sudeste 0 -- -- 90
2018-05-16 04:00:00 10.8 6 Sudeste 9 Sudeste 0 -- -- 90
2018-05-16 03:00:00 10.9 5 Este 8 Este 0 -- -- 89
2018-05-16 02:00:00 11.2 4 Este 6 Este 0 -- -- 87
2018-05-16 01:00:00 12.3 0 Calma 6 Este 0 -- -- 84
2018-05-16 00:00:00 14.3 2 Sur 7 Sudoeste 0 -- -- 77
2018-05-15 23:00:00 16.3 3 Noroeste 8 Noroeste 0 -- -- 65
2018-05-15 22:00:00 20 4 Noroeste 14 Noroeste 0 -- -- 52
2018-05-15 21:00:00 22 8 Noroeste 20 Noroeste 0 -- -- 47
2018-05-15 20:00:00 23.7 11 Noroeste 20 Noroeste 0 -- -- 46
2018-05-15 19:00:00 24.6 13 Noroeste 20 Oeste 0 -- -- 41
2018-05-15 18:00:00 24.6 13 Noroeste 19 Noroeste 0 -- -- 44
2018-05-15 17:00:00 24.5 10 Oeste 17 Oeste 0 -- -- 47
2018-05-15 16:00:00 24.3 11 Oeste 20 Sudoeste 0 -- -- 48
2018-05-15 15:00:00 24.8 12 Sudoeste 24 Este 0 -- -- 45
2018-05-15 14:00:00 26.7 10 Sur 31 Sudeste 0 -- -- 36
2018-05-15 13:00:00 26.6 14 Este 31 Sudeste 0 -- -- 32
2018-05-15 12:00:00 25.4 15 Este 26 Sudeste 0 -- -- 34
2018-05-15 11:00:00 23.9 15 Sudeste 30 Este 0 -- -- 38
2018-05-15 10:00:00 22 12 Este 21 Este 0 -- -- 46
2018-05-15 09:00:00 18.7 9 Nordeste 19 Nordeste 0 -- -- 59
2018-05-15 08:00:00 13.4 8 Nordeste 13 Nordeste 0 -- -- 82
2018-05-15 07:00:00 13.4 7 Nordeste 14 Norte 0 -- -- 85
2018-05-15 06:00:00 14.2 8 Nordeste 14 Nordeste 0 -- -- 82
2018-05-15 05:00:00 15.5 10 Nordeste 18 Nordeste 0 -- -- 78
2018-05-15 04:00:00 16.4 10 Nordeste 21 Nordeste 0 -- -- 75
2018-05-15 03:00:00 16.8 9 Nordeste 17 Nordeste 0 -- -- 72
2018-05-15 02:00:00 17.9 9 Nordeste 18 Nordeste 0 -- -- 65
2018-05-15 01:00:00 18.6 10 Nordeste 21 Nordeste 0 -- -- 61
2018-05-15 00:00:00 18.5 9 Nordeste 14 Nordeste 0 -- -- 59
2018-05-14 23:00:00 19.6 7 Nordeste 12 Nordeste 0 -- -- 56
2018-05-14 22:00:00 21.4 6 Nordeste 14 Nordeste 0 -- -- 50
2018-05-14 21:00:00 24.4 8 Nordeste 29 Este 0 -- -- 43
2018-05-14 20:00:00 26.2 12 Nordeste 33 Nordeste 0 -- -- 39
2018-05-14 19:00:00 27.2 15 Nordeste 35 Nordeste 0 -- -- 36
2018-05-14 18:00:00 27.7 17 Nordeste 37 Nordeste 0 -- -- 34
2018-05-14 17:00:00 27.9 17 Nordeste 35 Norte 0 -- -- 33
2018-05-14 16:00:00 27.3 13 Este 34 Nordeste 0 -- -- 36
2018-05-14 15:00:00 26.9 14 Nordeste 27 Norte 0 -- -- 36
2018-05-14 14:00:00 25 13 Este 32 Nordeste 0 -- -- 38
2018-05-14 13:00:00 23.7 15 Nordeste 33 Nordeste 0 -- -- 41
2018-05-14 12:00:00 21.7 14 Nordeste 30 Nordeste 0 -- -- 44
2018-05-14 11:00:00 19.5 14 Nordeste 31 Nordeste 0 -- -- 49
2018-05-14 10:00:00 17 18 Nordeste 30 Norte 0 -- -- 59
2018-05-14 09:00:00 14 10 Nordeste 22 Norte 0 -- -- 70
2018-05-14 08:00:00 11.7 10 Nordeste 22 Nordeste 0 -- -- 78
2018-05-14 07:00:00 11.7 10 Nordeste 23 Nordeste 0 -- -- 77
2018-05-14 06:00:00 12.4 11 Nordeste 25 Nordeste 0 -- -- 74
2018-05-14 05:00:00 12.9 14 Nordeste 24 Nordeste 0 -- -- 73
2018-05-14 04:00:00 13.5 12 Nordeste 24 Nordeste 0 -- -- 70
2018-05-14 03:00:00 14.3 12 Nordeste 26 Norte 0 -- -- 66
2018-05-14 02:00:00 14.7 11 Nordeste 21 Nordeste 0 -- -- 63
2018-05-14 01:00:00 14.4 8 Nordeste 14 Norte 0 -- -- 57
2018-05-11 20:00:00 -- -- -- -- -- -- -- -- --
2018-05-11 19:00:00 -- -- -- -- -- -- -- -- --
2018-05-11 18:00:00 20.1 13 Oeste 21 Sudoeste 0 -- -- 66
2018-05-11 17:00:00 20.4 12 Sudoeste 19 Oeste 0 -- -- 62
2018-05-11 16:00:00 20.1 13 Oeste 19 Sudoeste 0 -- -- 63
2018-05-11 15:00:00 20.1 11 Sudoeste 21 Sudoeste 0 -- -- 64
2018-05-11 14:00:00 19.8 10 Sudoeste 18 Sudoeste 0 -- -- 63
2018-05-11 13:00:00 19.1 8 Sur 15 Sur 0 -- -- 68
2018-05-11 12:00:00 17.7 7 Sur 14 Sur 0 -- -- 75
2018-05-11 11:00:00 16.9 6 Este 13 Este 0 -- -- 78
2018-05-11 10:00:00 16.1 8 Este 13 Este 0 -- -- 83
2018-05-11 09:00:00 13.5 6 Nordeste 11 Nordeste 0 -- -- 96
2018-05-11 08:00:00 11.7 5 Nordeste 8 Norte 0 -- -- 99
2018-05-11 07:00:00 11.1 5 Nordeste 9 Nordeste 0 -- -- 100
2018-05-11 06:00:00 10 5 Nordeste 9 Este 0 -- -- 100
2018-05-11 05:00:00 9.5 5 Nordeste 9 Este 0 -- -- 99
2018-05-11 04:00:00 9.4 6 Nordeste 8 Nordeste 0 -- -- 99
2018-05-11 03:00:00 9.9 4 Nordeste 7 Este 0 -- -- 97
2018-05-11 02:00:00 10.3 5 Este 9 Este 0 -- -- 97
2018-05-11 01:00:00 10.1 5 Nordeste 6 Este 0 -- -- 96
2018-05-11 00:00:00 10.7 4 Este 6 Nordeste 0 -- -- 94
2018-05-10 23:00:00 11.7 4 Nordeste 5 Nordeste 0 -- -- 91
2018-05-10 22:00:00 14.9 0 Calma 10 Sudoeste 0 -- -- 84
2018-05-10 21:00:00 17 6 Sudoeste 14 Oeste 0 -- -- 77
2018-05-10 20:00:00 17.9 8 Sudoeste 18 Oeste 0 -- -- 72
2018-05-10 19:00:00 18.5 11 Sudoeste 24 Oeste 0 -- -- 70
2018-05-10 18:00:00 18.9 14 Sudoeste 25 Sudoeste 0 -- -- 69
2018-05-10 17:00:00 19.2 14 Sudoeste 24 Oeste 0 -- -- 66
2018-05-10 16:00:00 19 13 Sudoeste 26 Oeste 0 -- -- 66
2018-05-10 15:00:00 18.8 17 Oeste 28 Sudoeste 0 -- -- 63
2018-05-10 14:00:00 18.7 16 Oeste 26 Oeste 0 -- -- 65
2018-05-10 13:00:00 18.4 15 Oeste 25 Sudoeste 0 -- -- 64
2018-05-10 12:00:00 18.5 3 Norte 14 Noroeste 0 -- -- 61
2018-05-10 11:00:00 16.7 5 Nordeste 20 Norte 0 -- -- 66
2018-05-10 10:00:00 13.5 8 Norte 16 Norte 0 -- -- 82
2018-05-10 09:00:00 12.9 6 Norte 15 Noroeste 0 -- -- 86
2018-05-10 08:00:00 11.5 6 Norte 20 Norte 0 -- -- 90
2018-05-10 07:00:00 11.4 8 Norte 19 Norte 0 -- -- 89
2018-05-10 06:00:00 11.9 7 Norte 19 Norte 0 -- -- 87
2018-05-10 05:00:00 12.7 10 Norte 23 Norte 0 -- -- 84
2018-05-10 04:00:00 13 11 Norte 26 Noroeste 0 -- -- 84
2018-05-10 03:00:00 13.7 12 Norte 26 Noroeste 0 -- -- 82
2018-05-10 02:00:00 14.7 10 Norte 23 Noroeste 0 -- -- 83
2018-05-10 01:00:00 16.2 12 Noroeste 24 Noroeste 0 -- -- 79
2018-05-10 00:00:00 17.2 4 Noroeste 17 Norte 0 -- -- 78
2018-05-09 23:00:00 17.7 8 Norte 17 Noroeste 0 -- -- 75
2018-05-09 22:00:00 17.9 6 Noroeste 12 Oeste 0 -- -- 84
2018-05-09 21:00:00 18 6 Noroeste 17 Noroeste 0 -- -- 81
2018-05-09 20:00:00 18.5 9 Noroeste 22 Oeste 0 -- -- 79
2018-05-09 19:00:00 18.4 14 Oeste 26 Oeste 0 -- -- 83
2018-05-09 18:00:00 18.8 18 Oeste 28 Oeste 0 -- -- 81
2018-05-09 17:00:00 19.7 19 Oeste 30 Oeste 0 -- -- 76
2018-05-09 16:00:00 20.6 19 Oeste 29 Oeste 0 -- -- 72
2018-05-09 15:00:00 20.9 17 Oeste 32 Oeste 0 -- -- 72
2018-05-09 14:00:00 21.6 10 Norte 23 Noroeste 0 -- -- 65
2018-05-09 13:00:00 21.7 9 Norte 21 Nordeste 0 -- -- 63
2018-05-09 12:00:00 19.8 10 Norte 23 Norte 0 -- -- 69
2018-05-09 11:00:00 18.3 11 Norte 23 Norte 0 -- -- 74
2018-05-09 10:00:00 16.5 13 Nordeste 23 Este 0 -- -- 81
2018-05-09 09:00:00 14.6 7 Norte 13 Norte 0 -- -- 88
2018-05-09 08:00:00 12.8 5 Nordeste 18 Norte 0 -- -- 93
2018-05-09 07:00:00 12.9 10 Norte 23 Norte 0 -- -- 91
2018-05-09 06:00:00 13.2 10 Norte 24 Norte 0 -- -- 89
2018-05-09 05:00:00 13.8 9 Norte 24 Norte 0 -- -- 85
2018-05-09 04:00:00 15 7 Norte 18 Nordeste 0 -- -- 82
2018-05-09 03:00:00 16.1 6 Nordeste 14 Norte 0 -- -- 85
2018-05-09 02:00:00 17.6 6 Norte 19 Norte 0 -- -- 82
2018-05-09 01:00:00 17.5 4 Norte 12 Nordeste 0 -- -- 87
2018-05-09 00:00:00 16.4 4 Norte 8 Este 0 -- -- 93
2018-05-08 23:00:00 18 0 Calma 8 Sudoeste 0 -- -- 89
2018-05-08 22:00:00 19.1 5 Sur 9 Sur 0 -- -- 86
2018-05-08 21:00:00 20.2 5 Noroeste 18 Oeste 0 -- -- 79
2018-05-08 20:00:00 20.8 10 Oeste 22 Sudoeste 0 -- -- 75
2018-05-08 19:00:00 20.5 15 Oeste 26 Oeste 0 -- -- 77
2018-05-08 18:00:00 22.1 17 Oeste 32 Oeste 0 -- -- 70
2018-05-08 17:00:00 22.3 19 Oeste 31 Oeste 0 -- -- 69
2018-05-08 16:00:00 21.4 22 Oeste 32 Oeste 0 -- -- 74
2018-05-08 15:00:00 21.9 18 Oeste 28 Oeste 0 -- -- 73
2018-05-08 14:00:00 21.9 12 Oeste 20 Oeste 0 -- -- 75
2018-05-08 13:00:00 21.5 5 Noroeste 13 Oeste 0 -- -- 76
2018-05-08 12:00:00 18.2 4 Norte 10 Nordeste 0.4 -- -- 92
2018-05-08 11:00:00 18.1 7 Nordeste 21 Norte 0 -- -- 85
2018-05-08 10:00:00 17.5 10 Norte 20 Norte 0 -- -- 87
2018-05-08 09:00:00 16.3 4 Noroeste 7 Norte 0 -- -- 93
2018-05-08 08:00:00 15.6 0 Calma 8 Este 0 -- -- 92
2018-05-08 07:00:00 16 6 Norte 13 Norte 0 -- -- 87
2018-05-08 06:00:00 15.5 6 Norte 12 Norte 0 -- -- 88
2018-05-08 05:00:00 14.6 7 Norte 12 Norte 0 -- -- 91
2018-05-08 04:00:00 15.3 5 Norte 10 Noroeste 0 -- -- 89
2018-05-08 03:00:00 16.1 6 Norte 13 Noroeste 0 -- -- 86
2018-05-08 02:00:00 17.4 5 Noroeste 20 Noroeste 0 -- -- 78
2018-05-08 01:00:00 18.1 10 Noroeste 18 Oeste 0 -- -- 82
2018-05-08 00:00:00 18.1 12 Oeste 17 Oeste 0 -- -- 81
2018-05-07 23:00:00 18.1 7 Oeste 15 Oeste 0 -- -- 79
2018-05-07 22:00:00 18.1 10 Oeste 25 Noroeste 0 -- -- 78
2018-05-07 21:00:00 18.5 12 Noroeste 27 Oeste 0 -- -- 81
2018-05-07 20:00:00 19.6 13 Oeste 22 Oeste 0 -- -- 74
2018-05-07 19:00:00 21 12 Oeste 22 Oeste 0 -- -- 68
2018-05-07 18:00:00 21.3 15 Oeste 25 Oeste 0 -- -- 66
2018-05-07 17:00:00 22.4 14 Oeste 22 Oeste 0 -- -- 63
2018-05-07 16:00:00 22.7 10 Oeste 18 Sudoeste 0 -- -- 59
2018-05-07 15:00:00 22.3 12 Sudoeste 26 Sudoeste 0 -- -- 61
2018-05-07 14:00:00 21.8 9 Sudoeste 17 Sudoeste 0 -- -- 66
2018-05-07 13:00:00 21.3 8 Sudoeste 16 Sudoeste 0 -- -- 68
2018-05-07 12:00:00 22 7 Sudoeste 14 Sur 0 -- -- 59
2018-05-07 11:00:00 20.8 6 Sudeste 14 Sudeste 0 -- -- 60
2018-05-07 10:00:00 18.9 8 Sudeste 15 Este 0 -- -- 71
2018-05-07 09:00:00 16.1 6 Este 12 Nordeste 0 -- -- 85
2018-05-07 08:00:00 12.8 6 Nordeste 11 Nordeste 0 -- -- 96
2018-05-07 07:00:00 12.3 6 Nordeste 10 Nordeste 0 -- -- 96
2018-05-07 06:00:00 12.4 5 Este 9 Este 0 -- -- 97
2018-05-07 05:00:00 12 5 Nordeste 8 Nordeste 0 -- -- 96
2018-05-07 04:00:00 12.3 5 Nordeste 7 Nordeste 0 -- -- 95
2018-05-07 03:00:00 13.2 4 Este 8 Nordeste 0 -- -- 92
2018-05-07 02:00:00 14.1 4 Norte 6 Norte 0 -- -- 89
2018-05-07 01:00:00 15.9 5 Norte 10 Noroeste 0 -- -- 85
2018-05-07 00:00:00 18.1 5 Oeste 9 Oeste 0 -- -- 79
2018-05-06 23:00:00 17.4 3 Norte 6 Noroeste 0 -- -- 80
2018-05-06 22:00:00 18.5 3 Norte 6 Norte 0 -- -- 76
2018-05-06 21:00:00 20.1 3 Norte 9 Oeste 0 -- -- 69
2018-05-06 20:00:00 20.7 7 Sudoeste 15 Oeste 0 -- -- 64
2018-05-06 19:00:00 21.8 8 Oeste 21 Sudoeste 0 -- -- 64
2018-05-06 18:00:00 22.7 15 Oeste 24 Oeste 0 -- -- 59
2018-05-06 17:00:00 24.4 13 Oeste 18 Oeste 0 -- -- 49
2018-05-06 16:00:00 24.4 10 Sudoeste 18 Sudoeste 0 -- -- 52
2018-05-06 15:00:00 24.2 11 Sudoeste 18 Sur 0 -- -- 53
2018-05-06 14:00:00 25 13 Sur 23 Sudeste 0 -- -- 51
2018-05-06 13:00:00 25.4 11 Sudeste 23 Sudeste 0 -- -- 45
2018-05-06 12:00:00 23.4 14 Este 23 Este 0 -- -- 53
2018-05-06 11:00:00 21.3 9 Este 17 Este 0 -- -- 59
2018-05-06 10:00:00 18.5 8 Este 16 Este 0 -- -- 72
2018-05-06 09:00:00 14.8 8 Este 14 Nordeste 0 -- -- 87
2018-05-06 08:00:00 11.4 6 Nordeste 11 Nordeste 0 -- -- 97
2018-05-06 07:00:00 10.4 6 Nordeste 10 Nordeste 0 -- -- 95
2018-05-06 06:00:00 11.3 7 Nordeste 10 Nordeste 0 -- -- 91
2018-05-06 05:00:00 11.7 6 Norte 10 Norte 0 -- -- 92
2018-05-06 04:00:00 12.5 4 Norte 9 Noroeste 0 -- -- 93
2018-05-06 03:00:00 11.3 6 Noroeste 9 Noroeste 0 -- -- 95
2018-05-06 02:00:00 11.5 4 Noroeste 6 Noroeste 0 -- -- 91
2018-05-06 01:00:00 13.2 2 Sudoeste 5 Noroeste 0 -- -- 87
2018-05-06 00:00:00 13.6 5 Norte 9 Norte 0 -- -- 84
2018-05-05 23:00:00 14.2 5 Noroeste 6 Noroeste 0 -- -- 84
2018-05-05 22:00:00 16.4 3 Norte 9 Noroeste 0 -- -- 76
2018-05-05 21:00:00 19.8 5 Noroeste 15 Noroeste 0 -- -- 62
2018-05-05 20:00:00 20.9 9 Noroeste 19 Oeste 0 -- -- 61
2018-05-05 19:00:00 21.5 11 Oeste 21 Oeste 0 -- -- 63
2018-05-05 18:00:00 20.7 14 Oeste 23 Oeste 0 -- -- 68
2018-05-05 17:00:00 21.1 13 Oeste 20 Oeste 0 -- -- 66
2018-05-05 16:00:00 21.2 14 Oeste 20 Oeste 0 -- -- 65
2018-05-05 15:00:00 20.5 13 Oeste 18 Oeste 0 -- -- 72
2018-05-05 14:00:00 19.9 9 Oeste 15 Sudoeste 0 -- -- 71
2018-05-05 13:00:00 20.1 8 Sudoeste 14 Sudoeste 0 -- -- 74
2018-05-05 12:00:00 19.5 7 Sudoeste 14 Sudoeste 0 -- -- 74
2018-05-05 11:00:00 18.9 9 Sur 14 Sur 0 -- -- 76
2018-05-05 10:00:00 16.7 8 Este 12 Sudeste 0 -- -- 84
2018-05-05 09:00:00 13.2 5 Este 10 Nordeste 0 -- -- 99
2018-05-05 08:00:00 10.7 6 Este 12 Este 0 -- -- 100
2018-05-05 07:00:00 10.4 6 Nordeste 10 Este 0 -- -- 100
2018-05-05 06:00:00 10.3 5 Nordeste 8 Nordeste 0 -- -- 99
2018-05-05 05:00:00 10.8 5 Este 8 Este 0 -- -- 98
2018-05-05 04:00:00 11.4 5 Este 8 Este 0 -- -- 98
2018-05-05 03:00:00 12.1 5 Nordeste 8 Este 0 -- -- 97
2018-05-05 02:00:00 13.4 4 Este 6 Este 0 -- -- 96
2018-05-05 01:00:00 14.7 3 Sudeste 8 Sudeste 0 -- -- 93
2018-05-05 00:00:00 14.9 0 Calma 6 Sudoeste 0 -- -- 93
2018-05-04 23:00:00 15.8 3 Sur 13 Sur 0 -- -- 91
2018-05-04 22:00:00 16.1 6 Sur 15 Sur 0 -- -- 91
2018-05-04 21:00:00 16.9 4 Oeste 16 Oeste 0 -- -- 87
2018-05-04 20:00:00 17.7 10 Oeste 23 Oeste 0 -- -- 82
2018-05-04 19:00:00 19.1 15 Oeste 29 Noroeste 0 -- -- 74
2018-05-04 18:00:00 19.8 18 Oeste 31 Oeste 0 -- -- 70
2018-05-04 17:00:00 20.5 15 Oeste 26 Noroeste 0 -- -- 62
2018-05-04 16:00:00 20.3 13 Oeste 19 Oeste 0 -- -- 65
2018-05-04 15:00:00 20.8 10 Oeste 21 Sur 0 -- -- 65
2018-05-04 14:00:00 21.5 10 Sudoeste 19 Sudoeste 0 -- -- 57
2018-05-04 13:00:00 22.9 8 Sudoeste 16 Sudeste 0 -- -- 50
2018-05-04 12:00:00 21.6 6 Sudeste 15 Sudeste 0 -- -- 51
2018-05-04 11:00:00 18.9 7 Sudeste 17 Sudeste 0 -- -- 61
2018-05-04 10:00:00 16.2 9 Nordeste 23 Nordeste 0 -- -- 72
2018-05-04 09:00:00 13.5 9 Nordeste 22 Nordeste 0 -- -- 84
2018-05-04 08:00:00 11 8 Nordeste 23 Nordeste 0 -- -- 93
2018-05-04 07:00:00 11.6 12 Norte 23 Norte 0 -- -- 91
2018-05-04 06:00:00 12.4 12 Norte 25 Norte 0 -- -- 89
2018-05-04 05:00:00 12.9 9 Norte 22 Norte 0 -- -- 87
2018-05-04 04:00:00 13.9 10 Norte 22 Nordeste 0 -- -- 84
2018-05-04 03:00:00 14.4 11 Norte 23 Norte 0 -- -- 82
2018-05-04 02:00:00 15 9 Norte 22 Nordeste 0 -- -- 80
2018-05-04 01:00:00 16.3 12 Norte 28 Norte 0 -- -- 77
2018-05-04 00:00:00 17 10 Norte 21 Norte 0 -- -- 75
2018-05-03 23:00:00 17.1 9 Norte 17 Nordeste 0 -- -- 72
2018-05-03 22:00:00 16.3 6 Norte 17 Noroeste 0 -- -- 80
2018-05-03 21:00:00 18.2 9 Noroeste 27 Noroeste 0 -- -- 80
2018-05-03 20:00:00 18.7 17 Noroeste 34 Noroeste 0 -- -- 75
2018-05-03 19:00:00 18.6 22 Noroeste 38 Noroeste 0 -- -- 67
2018-05-03 18:00:00 19.2 24 Noroeste 38 Noroeste 0 -- -- 69
2018-05-03 17:00:00 19.4 23 Oeste 39 Oeste 0 -- -- 66
2018-05-03 16:00:00 19.3 21 Oeste 31 Oeste 0 -- -- 70
2018-05-03 15:00:00 19.6 17 Oeste 36 Oeste 0 -- -- 69
2018-05-03 14:00:00 20.9 13 Oeste 26 Oeste 0 -- -- 59
2018-05-03 13:00:00 21.8 8 Nordeste 20 Norte 0 -- -- 50
2018-05-03 12:00:00 20 6 Norte 17 Norte 0 -- -- 57
2018-05-03 11:00:00 17.7 5 Norte 20 Nordeste 0 -- -- 70
2018-05-03 10:00:00 14.9 8 Norte 20 Nordeste 0 -- -- 80
2018-05-03 09:00:00 11.6 7 Nordeste 15 Norte 0 -- -- 94
2018-05-03 08:00:00 9 6 Nordeste 11 Nordeste 0 -- -- 98
2018-05-03 07:00:00 9.6 6 Nordeste 13 Nordeste 0 -- -- 96
2018-05-03 06:00:00 9.9 8 Nordeste 12 Nordeste 0 -- -- 96
2018-05-03 05:00:00 9.6 5 Nordeste 10 Nordeste 0 -- -- 96
2018-05-03 04:00:00 10 4 Nordeste 10 Nordeste 0 -- -- 93
2018-05-03 03:00:00 10.8 6 Nordeste 14 Norte 0 -- -- 91
2018-05-03 02:00:00 11 7 Nordeste 12 Norte 0 -- -- 89
2018-05-03 01:00:00 11.3 6 Nordeste 12 Norte 0 -- -- 87
2018-05-03 00:00:00 11.1 5 Norte 10 Norte 0 -- -- 86
2018-05-02 23:00:00 12.4 4 Norte 10 Noroeste 0 -- -- 83
2018-05-02 22:00:00 14.6 10 Noroeste 26 Oeste 0 -- -- 79
2018-05-02 21:00:00 14.9 16 Noroeste 30 Noroeste 0 -- -- 75
2018-05-02 20:00:00 15.7 15 Noroeste 28 Noroeste 0 -- -- 73
2018-05-02 19:00:00 16.6 17 Noroeste 32 Noroeste 0 -- -- 67
2018-05-02 18:00:00 17.3 21 Noroeste 36 Noroeste 0 -- -- 62
2018-05-02 17:00:00 17.4 23 Oeste 32 Noroeste 0 -- -- 58
2018-05-02 16:00:00 17.7 17 Oeste 29 Oeste 0 -- -- 54
2018-05-02 15:00:00 17.2 17 Oeste 27 Oeste 0 -- -- 61
2018-05-02 14:00:00 16.3 15 Oeste 23 Oeste 0 -- -- 63
2018-05-02 13:00:00 16.1 11 Oeste 19 Oeste 0 -- -- 62
2018-05-02 12:00:00 15.6 8 Oeste 15 Oeste 0 -- -- 64
2018-05-02 11:00:00 13.8 6 Oeste 13 Oeste 0 -- -- 70
2018-05-02 10:00:00 10.4 2 Nordeste 5 Nordeste 0 -- -- 84
2018-05-02 09:00:00 7.8 0 Calma 3 Nordeste 0 -- -- 96
2018-05-02 08:00:00 5.6 0 Calma 4 Nordeste 0 -- -- 95
2018-05-02 07:00:00 6.7 3 Nordeste 9 Nordeste 0 -- -- 93
2018-05-02 06:00:00 7.7 7 Nordeste 15 Nordeste 0 -- -- 90
2018-05-02 05:00:00 8.4 8 Nordeste 17 Norte 0 -- -- 88
2018-05-02 04:00:00 8.8 9 Nordeste 17 Nordeste 0 -- -- 87
2018-05-02 03:00:00 9.4 8 Nordeste 16 Nordeste 0 -- -- 86
2018-05-02 02:00:00 10.3 6 Nordeste 21 Norte 0 -- -- 80
2018-05-02 01:00:00 11.2 10 Norte 24 Norte 0 -- -- 77
2018-05-02 00:00:00 11.5 7 Norte 16 Norte 0 -- -- 79
2018-05-01 23:00:00 10.4 6 Norte 10 Norte 0 -- -- 87
2018-05-01 22:00:00 12.4 4 Oeste 10 Sudoeste 0 -- -- 79
2018-05-01 21:00:00 14.2 5 Sur 15 Sudeste 0 -- -- 72
2018-05-01 20:00:00 14.9 12 Sudeste 36 Este 0 -- -- 68
2018-05-01 19:00:00 20 11 Nordeste 31 Norte 0 -- -- 40
2018-05-01 18:00:00 19.7 14 Norte 41 Norte 0 -- -- 37
2018-05-01 17:00:00 19.2 19 Norte 38 Noroeste 0 -- -- 41
2018-05-01 16:00:00 19 15 Norte 44 Norte 0 -- -- 43
2018-05-01 15:00:00 18.7 14 Norte 32 Norte 0 -- -- 51
2018-05-01 14:00:00 17.7 17 Norte 36 Norte 0 -- -- 56
2018-05-01 13:00:00 16.3 15 Nordeste 34 Nordeste 0 -- -- 63
2018-05-01 12:00:00 15.4 14 Norte 36 Norte 0 -- -- 63
2018-05-01 11:00:00 14.1 13 Norte 30 Norte 0 -- -- 71
2018-05-01 10:00:00 12.1 14 Norte 28 Norte 0 -- -- 81
2018-05-01 09:00:00 9.7 12 Norte 23 Norte 0 -- -- 95
2018-05-01 08:00:00 7.8 10 Norte 19 Norte 0 -- -- 99
2018-05-01 07:00:00 7.3 6 Nordeste 13 Norte 0 -- -- 98
2018-05-01 06:00:00 7.9 6 Norte 15 Nordeste 0 -- -- 97
2018-05-01 05:00:00 8.5 9 Nordeste 16 Nordeste 0 -- -- 96
2018-05-01 04:00:00 8.5 7 Nordeste 12 Nordeste 0 -- -- 95
2018-05-01 03:00:00 8.9 6 Nordeste 12 Nordeste 0 -- -- 92
2018-05-01 02:00:00 10.1 9 Nordeste 19 Norte 0 -- -- 87
2018-05-01 01:00:00 10.8 8 Norte 21 Norte 0 -- -- 83
2018-05-01 00:00:00 11.1 7 Norte 16 Norte 0 -- -- 83
2018-04-30 23:00:00 12.3 6 Norte 21 Noroeste 0 -- -- 83
2018-04-30 22:00:00 13.8 12 Noroeste 26 Oeste 0 -- -- 78
2018-04-30 21:00:00 14.2 15 Noroeste 26 Oeste 0 -- -- 73
2018-04-30 20:00:00 15.3 17 Noroeste 30 Noroeste 0 -- -- 68
2018-04-30 19:00:00 15.9 18 Noroeste 30 Noroeste 0 -- -- 67
2018-04-30 18:00:00 16.3 14 Oeste 22 Oeste 0 -- -- 62
2018-04-30 17:00:00 16.5 14 Oeste 22 Oeste 0 -- -- 56
2018-04-30 16:00:00 16.2 14 Oeste 21 Oeste 0 -- -- 61
2018-04-30 15:00:00 15.4 12 Oeste 19 Oeste 0 -- -- 69
2018-04-30 14:00:00 14.1 13 Noroeste 19 Noroeste 0 -- -- 79
2018-04-30 13:00:00 14.2 6 Oeste 11 Oeste 0 -- -- 70
2018-04-30 12:00:00 14 6 Oeste 10 Oeste 0 -- -- 72
2018-04-30 11:00:00 12.8 0 Calma 4 Este 0 -- -- 75
2018-04-30 10:00:00 11.3 2 Este 8 Este 0 -- -- 88
2018-04-30 09:00:00 8.7 4 Este 8 Este 0 -- -- 97
2018-04-30 08:00:00 4.7 5 Este 7 Este 0 -- -- 100
2018-04-30 07:00:00 4.2 4 Este 9 Nordeste 0 -- -- 97
2018-04-30 06:00:00 4.8 5 Nordeste 6 Nordeste 0 -- -- 97
2018-04-30 05:00:00 5 4 Nordeste 6 Nordeste 0 -- -- 96
2018-04-30 04:00:00 6.2 3 Nordeste 8 Norte 0 -- -- 93
2018-04-30 03:00:00 7.1 5 Nordeste 10 Norte 0 -- -- 91
2018-04-30 02:00:00 6.9 5 Norte 9 Norte 0 -- -- 90
2018-04-30 01:00:00 8.6 5 Norte 11 Norte 0 -- -- 83
2018-04-30 00:00:00 9.5 5 Norte 11 Norte 0 -- -- 79
2018-04-29 23:00:00 10.4 5 Nordeste 11 Nordeste 0 -- -- 76
2018-04-29 22:00:00 12 7 Nordeste 16 Norte 0 -- -- 66
2018-04-29 21:00:00 15.1 8 Norte 26 Noroeste 0 -- -- 53
2018-04-29 20:00:00 15.6 19 Noroeste 35 Oeste 0 -- -- 70
2018-04-29 19:00:00 17.4 13 Noroeste 44 Noroeste 0 -- -- 51
2018-04-29 18:00:00 16.7 15 Noroeste 34 Noroeste 0 -- -- 63
2018-04-29 17:00:00 16.1 28 Noroeste 48 Noroeste 0 -- -- 73
2018-04-29 16:00:00 17.5 28 Noroeste 46 Noroeste 0 -- -- 62
2018-04-29 15:00:00 17 22 Oeste 49 Oeste 0 -- -- 62
2018-04-29 14:00:00 17.2 23 Noroeste 35 Oeste 0 -- -- 61
2018-04-29 13:00:00 17 21 Oeste 33 Oeste 0 -- -- 64
2018-04-29 12:00:00 17 16 Noroeste 32 Noroeste 0 -- -- 49
2018-04-29 11:00:00 15.3 18 Norte 30 Norte 0 -- -- 61
2018-04-29 10:00:00 14.1 14 Noroeste 28 Noroeste 0 -- -- 67
2018-04-29 09:00:00 11.8 11 Noroeste 20 Noroeste 0 -- -- 79
2018-04-29 08:00:00 8.9 7 Noroeste 14 Noroeste 0 -- -- 91
2018-04-29 07:00:00 10 9 Norte 21 Noroeste 0 -- -- 85
2018-04-29 06:00:00 10.3 9 Noroeste 21 Noroeste 0 -- -- 85
2018-04-29 05:00:00 10.3 8 Noroeste 17 Noroeste 0 -- -- 83
2018-04-29 04:00:00 10.1 9 Noroeste 18 Norte 0 -- -- 83
2018-04-29 03:00:00 10.7 11 Noroeste 23 Noroeste 0 -- -- 80
2018-04-29 02:00:00 11 11 Noroeste 23 Noroeste 0 -- -- 81
2018-04-29 01:00:00 11.1 13 Noroeste 21 Noroeste 0 -- -- 81
2018-04-29 00:00:00 10.3 6 Norte 11 Norte 0 -- -- 89
2018-04-28 23:00:00 11.2 6 Norte 14 Norte 0 -- -- 84
2018-04-28 22:00:00 12.6 6 Norte 31 Noroeste 0 -- -- 76
2018-04-28 21:00:00 14 12 Noroeste 49 Noroeste 0 -- -- 67
2018-04-28 20:00:00 15.9 27 Noroeste 51 Noroeste 0 -- -- 69
2018-04-28 19:00:00 16.8 26 Noroeste 42 Noroeste 0 -- -- 62
2018-04-28 18:00:00 17.3 25 Oeste 39 Noroeste 0 -- -- 58
2018-04-28 17:00:00 16.9 22 Oeste 40 Oeste 0 -- -- 63
2018-04-28 16:00:00 16.5 20 Oeste 32 Oeste 0 -- -- 61
2018-04-28 15:00:00 17 20 Oeste 36 Oeste 0 -- -- 59
2018-04-28 14:00:00 16.7 16 Oeste 29 Oeste 0 -- -- 59
2018-04-28 13:00:00 16.5 16 Oeste 26 Oeste 0 -- -- 63
2018-04-28 12:00:00 15.9 12 Norte 28 Noroeste 0 -- -- 56
2018-04-28 11:00:00 14.7 8 Nordeste 20 Norte 0 -- -- 64
2018-04-28 10:00:00 12.9 9 Norte 19 Norte 0 -- -- 72
2018-04-28 09:00:00 10.1 6 Norte 15 Norte 0 -- -- 91
2018-04-28 08:00:00 8.2 5 Norte 10 Norte 0 -- -- 95
2018-04-28 07:00:00 9.3 4 Norte 17 Nordeste 0 -- -- 92
2018-04-28 06:00:00 10.3 8 Nordeste 19 Nordeste 0 -- -- 91
2018-04-28 05:00:00 11.1 8 Norte 23 Norte 0 -- -- 91
2018-04-28 04:00:00 11.8 9 Norte 21 Norte 0 -- -- 90
2018-04-28 03:00:00 12.9 10 Norte 33 Norte 0 -- -- 87
2018-04-28 02:00:00 13.8 15 Norte 38 Norte 0 -- -- 84
2018-04-28 01:00:00 14.8 14 Nordeste 34 Nordeste 0 -- -- 82
2018-04-28 00:00:00 16 12 Nordeste 32 Nordeste 0 -- -- 79
2018-04-27 23:00:00 17.3 14 Norte 27 Norte 0 -- -- 77
2018-04-27 22:00:00 16.9 6 Norte 12 Norte 0 -- -- 77
2018-04-27 21:00:00 19.3 8 Noroeste 22 Noroeste 0 -- -- 77
2018-04-27 20:00:00 20.5 14 Noroeste 26 Noroeste 0 -- -- 76
2018-04-27 19:00:00 21.3 18 Noroeste 31 Noroeste 0 -- -- 70
2018-04-27 18:00:00 21.6 19 Noroeste 30 Noroeste 0 -- -- 69
2018-04-27 17:00:00 23.1 14 Noroeste 27 Oeste 0 -- -- 57
2018-04-27 16:00:00 25.4 14 Norte 35 Noroeste 0 -- -- 39
2018-04-27 15:00:00 24.8 13 Norte 33 Norte 0 -- -- 41
2018-04-27 14:00:00 23.8 9 Nordeste 24 Nordeste 0 -- -- 47
2018-04-27 13:00:00 22 13 Nordeste 23 Nordeste 0 -- -- 49
2018-04-27 12:00:00 19.9 12 Nordeste 23 Nordeste 0 -- -- 55
2018-04-27 11:00:00 17.1 10 Nordeste 22 Norte 0 -- -- 69
2018-04-27 10:00:00 14.6 10 Nordeste 22 Nordeste 0 -- -- 79
2018-04-27 09:00:00 12.7 8 Nordeste 15 Nordeste 0 -- -- 92
2018-04-27 08:00:00 12.3 8 Nordeste 17 Norte 0 -- -- 93
2018-04-27 07:00:00 13.5 9 Norte 17 Noroeste 0 -- -- 90
2018-04-27 06:00:00 15.7 5 Nordeste 15 Norte 0 -- -- 92
2018-04-27 05:00:00 16.7 6 Norte 13 Norte 0 -- -- 95
2018-04-27 04:00:00 17.1 6 Noroeste 11 Oeste 0 -- -- 94
2018-04-27 03:00:00 17.1 6 Noroeste 13 Noroeste 0 -- -- 94
2018-04-27 02:00:00 17.3 8 Oeste 21 Noroeste 0 -- -- 93
2018-04-27 01:00:00 17.5 9 Noroeste 21 Noroeste 0 -- -- 95
2018-04-27 00:00:00 17.5 8 Oeste 15 Noroeste 0 -- -- 94
2018-04-26 23:00:00 17.8 9 Oeste 15 Oeste 0 -- -- 94
2018-04-26 22:00:00 18 7 Oeste 15 Oeste 0 -- -- 92
2018-04-26 21:00:00 18.6 9 Oeste 16 Oeste 0 -- -- 86
2018-04-26 20:00:00 19.7 8 Oeste 18 Oeste 0 -- -- 82
2018-04-26 19:00:00 20.4 12 Oeste 21 Oeste 0 -- -- 78
2018-04-26 18:00:00 21.1 12 Oeste 21 Oeste 0 -- -- 75
2018-04-26 17:00:00 21.5 12 Oeste 18 Oeste 0 -- -- 72
2018-04-26 16:00:00 21.4 12 Oeste 18 Noroeste 0 -- -- 74
2018-04-26 15:00:00 21.4 11 Oeste 17 Oeste 0 -- -- 74
2018-04-26 14:00:00 20.9 9 Oeste 14 Oeste 0 -- -- 78
2018-04-26 13:00:00 19.7 6 Oeste 13 Sur 0 -- -- 85
2018-04-26 12:00:00 18.1 4 Sudoeste 6 Sur 0 -- -- 91
2018-04-26 11:00:00 17.6 3 Sur 7 Este 0 -- -- 94
2018-04-26 10:00:00 16.8 4 Este 9 Este 0 -- -- 96
2018-04-26 09:00:00 16.3 3 Nordeste 6 Este 0 -- -- 98
2018-04-26 08:00:00 15.9 2 Nordeste 6 Sudeste 0 -- -- 98
2018-04-26 07:00:00 15.9 4 Este 26 Norte 0 -- -- 97
2018-04-26 06:00:00 16.3 15 Norte 27 Norte 0 -- -- 98
2018-04-26 05:00:00 16.4 11 Norte 21 Nordeste 0 -- -- 97
2018-04-26 04:00:00 16.7 8 Norte 18 Noroeste 0 -- -- 95
2018-04-26 03:00:00 17.4 7 Norte 14 Sudoeste 0 -- -- 93
2018-04-26 02:00:00 17.1 10 Sudoeste 35 Sur 0 -- -- 95
2018-04-26 01:00:00 17.1 7 Sudoeste 12 Sudoeste 0 -- -- 96
2018-04-26 00:00:00 17.3 4 Oeste 9 Noroeste 0 -- -- 95
2018-04-25 23:00:00 17.4 5 Oeste 15 Oeste 0 -- -- 94
2018-04-25 22:00:00 17.7 6 Oeste 18 Oeste 0 -- -- 93
2018-04-25 21:00:00 18 9 Oeste 17 Oeste 0 -- -- 91
2018-04-25 20:00:00 18.7 10 Oeste 18 Oeste 0 -- -- 88
2018-04-25 19:00:00 19.8 10 Oeste 18 Oeste 0 -- -- 84
2018-04-25 18:00:00 20.1 11 Sudoeste 22 Sudoeste 0 -- -- 82
2018-04-25 17:00:00 20.5 12 Sudoeste 24 Sudoeste 0 -- -- 83
2018-04-25 16:00:00 20.6 14 Sudoeste 23 Sudoeste 0 -- -- 82
2018-04-25 15:00:00 21.2 12 Sudoeste 19 Sudoeste 0 -- -- 79
2018-04-25 14:00:00 21.4 9 Sudoeste 18 Sur 0 -- -- 79
2018-04-25 13:00:00 19.1 6 Sudeste 17 Sudeste 0 -- -- 87
2018-04-25 12:00:00 17.6 5 Este 14 Este 0 -- -- 94
2018-04-25 11:00:00 16.7 7 Este 17 Este 0 -- -- 95
2018-04-25 10:00:00 16.1 6 Nordeste 18 Nordeste 0 -- -- 100
2018-04-25 09:00:00 14.8 5 Nordeste 13 Nordeste 0 -- -- 100
2018-04-25 08:00:00 14.2 3 Sudeste 14 Nordeste 0 -- -- 99
2018-04-25 07:00:00 15 8 Norte 17 Norte 0 -- -- 99
2018-04-25 06:00:00 16 7 Norte 13 Norte 0 -- -- 99
2018-04-25 05:00:00 16.8 6 Noroeste 18 Oeste 0 -- -- 99
2018-04-25 04:00:00 16.9 9 Oeste 17 Oeste 0 -- -- 99
2018-04-25 03:00:00 14.6 7 Sudoeste 13 Sur 0 -- -- 100
2018-04-25 02:00:00 14.5 2 Sur 5 Noroeste 0 -- -- 97
2018-04-25 01:00:00 14.9 5 Norte 10 Norte 0 -- -- 97
2018-04-25 00:00:00 14.9 2 Nordeste 9 Sudeste 0 -- -- 94
2018-04-24 23:00:00 16.1 2 Nordeste 5 Noroeste 0 -- -- 93
2018-04-24 22:00:00 17.8 4 Noroeste 10 Norte 0 -- -- 88
2018-04-24 21:00:00 20.1 4 Noroeste 9 Noroeste 0 -- -- 82
2018-04-24 20:00:00 21.5 6 Noroeste 13 Noroeste 0 -- -- 73
2018-04-24 19:00:00 21.1 8 Noroeste 15 Oeste 0 -- -- 76
2018-04-24 18:00:00 22 9 Noroeste 13 Noroeste 0 -- -- 69
2018-04-24 17:00:00 21.2 7 Noroeste 13 Noroeste 0 -- -- 74
2018-04-24 16:00:00 20.3 9 Noroeste 17 Oeste 0 -- -- 82
2018-04-24 15:00:00 20.4 9 Oeste 16 Oeste 0 -- -- 80
2018-04-24 14:00:00 19.8 7 Oeste 13 Oeste 0 -- -- 83
2018-04-24 13:00:00 19.8 9 Sudoeste 14 Sudoeste 0 -- -- 84
2018-04-24 12:00:00 19.5 9 Sudoeste 16 Sudoeste 0 -- -- 85
2018-04-24 11:00:00 18.7 8 Sur 17 Sur 0 -- -- 87
2018-04-24 10:00:00 17.6 4 Este 10 Sur 0 -- -- 94
2018-04-24 09:00:00 16.3 4 Sur 20 Nordeste 0 -- -- 95
2018-04-24 08:00:00 15.8 8 Norte 13 Noroeste 0 -- -- 97
2018-04-24 07:00:00 15.6 4 Este 9 Este 0 -- -- 97
2018-04-24 06:00:00 16 0 Calma 13 Sudeste 0 -- -- 96
2018-04-24 05:00:00 16.3 7 Sur 13 Sudeste 0 -- -- 94
2018-04-24 04:00:00 16.3 4 Este 8 Este 0 -- -- 93
2018-04-24 03:00:00 17.1 3 Norte 11 Oeste 0 -- -- 90
2018-04-24 02:00:00 17.2 7 Sudoeste 14 Sudoeste 0 -- -- 91
2018-04-24 01:00:00 17 8 Sudoeste 14 Sur 0 -- -- 94
2018-04-24 00:00:00 16.3 5 Este 8 Este 0 -- -- 93
2018-04-23 23:00:00 17.9 4 Noroeste 15 Oeste 0 -- -- 89
2018-04-23 22:00:00 18.5 6 Oeste 22 Noroeste 0 -- -- 84
2018-04-23 21:00:00 19 13 Noroeste 27 Noroeste 0 -- -- 78
2018-04-23 20:00:00 19.9 15 Noroeste 27 Noroeste 0 -- -- 76
2018-04-23 19:00:00 20.9 15 Noroeste 26 Noroeste 0 -- -- 75
2018-04-23 18:00:00 21.8 16 Noroeste 26 Noroeste 0 -- -- 72
2018-04-23 17:00:00 22 15 Noroeste 25 Noroeste 0 -- -- 72
2018-04-23 16:00:00 22.1 15 Noroeste 22 Noroeste 0 -- -- 72
2018-04-23 15:00:00 22.1 11 Noroeste 19 Oeste 0 -- -- 71
2018-04-23 14:00:00 21.8 10 Oeste 18 Oeste 0 -- -- 71
2018-04-23 13:00:00 21.7 7 Oeste 13 Oeste 0 -- -- 71
2018-04-23 12:00:00 20.9 6 Oeste 10 Oeste 0 -- -- 74
2018-04-23 11:00:00 19.9 4 Sudoeste 9 Sudoeste 0 -- -- 80
2018-04-23 10:00:00 17.6 2 Este 6 Este 0 -- -- 94
2018-04-23 09:00:00 14 0 Calma 8 Nordeste 0 -- -- 100
2018-04-23 08:00:00 12.8 5 Nordeste 8 Norte 0 -- -- 100
2018-04-23 07:00:00 13.4 2 Norte 6 Norte 0 -- -- 99
2018-04-23 06:00:00 13.6 3 Nordeste 10 Este 0 -- -- 99
2018-04-23 05:00:00 13.8 5 Este 9 Este 0 -- -- 99
2018-04-23 04:00:00 13.8 5 Este 8 Este 0 -- -- 98
2018-04-23 03:00:00 14.4 3 Este 10 Nordeste 0 -- -- 97
2018-04-23 02:00:00 14.8 8 Nordeste 13 Nordeste 0 -- -- 98
2018-04-23 01:00:00 15.3 4 Este 13 Noroeste 0 -- -- 97
2018-04-23 00:00:00 15.2 8 Nordeste 14 Nordeste 0 -- -- 98
2018-04-22 23:00:00 14.8 4 Nordeste 9 Este 0 -- -- 96
2018-04-22 22:00:00 15.7 0 Calma 7 Noroeste 0 -- -- 93
2018-04-22 21:00:00 17.7 4 Noroeste 10 Oeste 0 -- -- 85
2018-04-22 20:00:00 19.5 6 Noroeste 12 Noroeste 0 -- -- 74
2018-04-22 19:00:00 20.2 7 Noroeste 13 Noroeste 0 -- -- 71
2018-04-22 18:00:00 19.8 5 Oeste 13 Oeste 0 -- -- 76
2018-04-22 17:00:00 19.6 5 Sudoeste 13 Sudoeste 0 -- -- 78
2018-04-22 16:00:00 19.9 7 Sudoeste 18 Sur 0 -- -- 80
2018-04-22 15:00:00 19.4 12 Sur 18 Sur 0 -- -- 82
2018-04-22 14:00:00 17.6 8 Sur 16 Sudoeste 0 -- -- 91
2018-04-22 13:00:00 16.5 5 Sudeste 15 Sudeste 0 -- -- 99
2018-04-22 12:00:00 15.6 3 Sudeste 11 Este 0 -- -- 100
2018-04-22 11:00:00 15 5 Este 9 Este 0 -- -- 100
2018-04-22 10:00:00 14.5 4 Este 7 Este 0 -- -- 100
2018-04-22 09:00:00 13.5 3 Este 5 Este 0 -- -- 100
2018-04-22 08:00:00 12.6 0 Calma 5 Este 0 -- -- 100
2018-04-22 07:00:00 13 2 Nordeste 4 Este 0 -- -- 100
2018-04-22 06:00:00 13.8 2 Nordeste 5 Norte 0 -- -- 100
2018-04-22 05:00:00 13.9 3 Nordeste 7 Nordeste 0 -- -- 100
2018-04-22 04:00:00 14.3 2 Nordeste 5 Norte 0 -- -- 100
2018-04-22 03:00:00 14.7 0 Calma 9 Nordeste 0.2 -- -- 100
2018-04-22 02:00:00 14.8 5 Este 7 Sudeste 0.2 -- -- 100
2018-04-22 01:00:00 14.8 0 Calma 5 Nordeste 0.2 -- -- 100
2018-04-22 00:00:00 15 3 Sudeste 6 Sur 0 -- -- 100